createdAt,value
2023-05-19T00:02:01.158Z,3.15
2023-05-19T00:04:29.686Z,6.28
2023-05-19T00:06:58.252Z,5.63
2023-05-19T00:09:28.270Z,4.63
2023-05-19T00:11:57.662Z,6.90
2023-05-19T00:14:25.970Z,5.82
2023-05-19T00:16:55.987Z,3.45
2023-05-19T00:19:24.511Z,5.75
2023-05-19T00:21:52.854Z,5.30
2023-05-19T00:24:20.785Z,4.75
2023-05-19T00:26:50.246Z,4.68
2023-05-19T00:29:19.119Z,7.07
2023-05-19T00:31:47.677Z,3.53
2023-05-19T00:34:15.738Z,8.43
2023-05-19T00:36:43.720Z,5.68
2023-05-19T00:39:15.102Z,4.65
2023-05-19T00:41:43.074Z,5.22
2023-05-19T00:44:12.369Z,4.93
2023-05-19T00:46:41.404Z,6.15
2023-05-19T00:49:09.373Z,6.75
2023-05-19T00:51:37.308Z,4.63
2023-05-19T00:54:05.380Z,6.55
2023-05-19T00:56:33.757Z,6.90
2023-05-19T00:59:01.752Z,3.28
2023-05-19T01:01:32.316Z,4.43
2023-05-19T01:04:00.593Z,4.20
2023-05-19T01:06:29.564Z,3.88
2023-05-19T01:08:58.330Z,4.78
2023-05-19T01:11:26.256Z,4.68
2023-05-19T01:13:54.199Z,3.28
2023-05-19T01:16:25.889Z,5.22
2023-05-19T01:18:57.952Z,5.22
2023-05-19T01:21:44.476Z,3.85
2023-05-19T01:24:35.425Z,3.63
2023-05-19T01:27:16.120Z,3.42
2023-05-19T01:29:47.543Z,4.57
2023-05-19T01:32:16.988Z,3.58
2023-05-19T01:34:46.036Z,3.47
2023-05-19T01:37:14.298Z,3.28
2023-05-19T01:39:42.338Z,3.65
2023-05-19T01:42:10.336Z,5.80
2023-05-19T01:44:38.258Z,4.07
2023-05-19T01:47:07.074Z,5.07
2023-05-19T01:49:36.360Z,3.97
2023-05-19T01:52:05.648Z,3.90
2023-05-19T01:54:33.765Z,4.88
2023-05-19T01:57:11.249Z,3.30
2023-05-19T01:59:45.333Z,3.88
2023-05-19T02:02:19.637Z,3.10
2023-05-19T02:04:52.369Z,2.97
2023-05-19T02:07:24.598Z,3.17
2023-05-19T02:09:54.285Z,4.13
2023-05-19T02:12:26.823Z,3.67
2023-05-19T02:14:59.633Z,3.53
2023-05-19T02:17:28.062Z,4.03
2023-05-19T02:19:57.602Z,4.40
2023-05-19T02:22:25.575Z,3.28
2023-05-19T02:24:53.516Z,4.18
2023-05-19T02:27:21.675Z,4.07
2023-05-19T02:29:49.688Z,4.00
2023-05-19T02:32:17.795Z,3.70
2023-05-19T02:34:46.218Z,3.78
2023-05-19T02:37:15.752Z,4.43
2023-05-19T02:39:44.278Z,3.97
2023-05-19T02:42:12.346Z,4.80
2023-05-19T02:44:40.326Z,3.55
2023-05-19T02:47:08.308Z,3.67
2023-05-19T02:49:36.799Z,3.83
2023-05-19T02:52:05.114Z,3.15
2023-05-19T02:54:34.807Z,3.50
2023-05-19T02:57:02.884Z,3.17
2023-05-19T02:59:31.298Z,3.17
2023-05-19T03:02:00.900Z,3.10
2023-05-19T03:04:29.387Z,3.20
2023-05-19T03:06:57.625Z,3.03
2023-05-19T03:09:25.648Z,3.15
2023-05-19T03:11:55.037Z,3.17
2023-05-19T03:14:24.701Z,2.63
2023-05-19T03:16:53.264Z,3.25
2023-05-19T03:19:21.442Z,2.65
2023-05-19T03:21:49.663Z,3.10
2023-05-19T03:24:18.030Z,3.47
2023-05-19T03:26:46.438Z,4.13
2023-05-19T03:29:16.433Z,3.20
2023-05-19T03:31:44.519Z,2.92
2023-05-19T03:34:13.761Z,2.63
2023-05-19T03:36:41.804Z,3.75
2023-05-19T03:39:14.955Z,2.85
2023-05-19T03:41:43.121Z,3.40
2023-05-19T03:44:11.273Z,3.58
2023-05-19T03:46:40.753Z,4.50
2023-05-19T03:49:24.688Z,3.47
2023-05-19T03:52:18.786Z,2.67
2023-05-19T03:54:57.743Z,4.25
2023-05-19T03:57:25.762Z,3.40
2023-05-19T03:59:54.851Z,2.70
2023-05-19T04:02:24.211Z,3.00
2023-05-19T04:04:53.758Z,3.22
2023-05-19T04:07:21.874Z,4.68
2023-05-19T04:09:50.098Z,6.30
2023-05-19T04:12:18.160Z,3.03
2023-05-19T04:14:46.660Z,3.97
2023-05-19T04:17:14.594Z,3.40
2023-05-19T04:19:43.894Z,3.28
2023-05-19T04:22:11.843Z,3.53
2023-05-19T04:24:39.833Z,2.70
2023-05-19T04:27:12.051Z,3.38
2023-05-19T04:29:41.041Z,3.03
2023-05-19T04:32:10.680Z,3.17
2023-05-19T04:34:40.407Z,2.50
2023-05-19T04:37:11.132Z,2.80
2023-05-19T04:39:43.004Z,4.45
2023-05-19T04:42:11.649Z,2.38
2023-05-19T04:44:41.970Z,3.97
2023-05-19T04:47:10.321Z,2.70
2023-05-19T04:49:39.502Z,3.05
2023-05-19T04:52:10.771Z,3.95
2023-05-19T04:54:41.838Z,2.95
2023-05-19T04:57:12.633Z,3.45
2023-05-19T04:59:41.196Z,3.40
2023-05-19T05:02:09.794Z,3.47
2023-05-19T05:04:42.468Z,3.83
2023-05-19T05:07:10.663Z,4.53
2023-05-19T05:09:41.304Z,3.17
2023-05-19T05:12:10.843Z,2.97
2023-05-19T05:14:41.024Z,3.50
2023-05-19T05:17:12.720Z,4.40
2023-05-19T05:19:41.266Z,3.33
2023-05-19T05:22:09.865Z,2.72
2023-05-19T05:24:42.685Z,3.10
2023-05-19T05:27:10.711Z,2.75
2023-05-19T05:29:38.962Z,4.57
2023-05-19T05:32:09.015Z,3.53
2023-05-19T05:34:38.140Z,8.63
2023-05-19T05:37:06.577Z,7.30
2023-05-19T05:39:35.546Z,5.47
2023-05-19T05:42:05.225Z,5.97
2023-05-19T05:44:35.718Z,6.15
2023-05-19T05:47:06.032Z,5.20
2023-05-19T05:49:36.545Z,5.68
2023-05-19T05:52:06.301Z,13.30
2023-05-19T05:54:42.132Z,5.88
2023-05-19T05:57:12.850Z,8.35
2023-05-19T05:59:41.848Z,11.35
2023-05-19T06:02:09.836Z,17.52
2023-05-19T06:04:37.899Z,12.48
2023-05-19T06:07:07.488Z,13.95
2023-05-19T06:09:38.178Z,16.90
2023-05-19T06:12:08.006Z,11.02
2023-05-19T06:14:42.557Z,16.83
2023-05-19T06:17:11.795Z,18.52
2023-05-19T06:19:40.035Z,11.20
2023-05-19T06:22:08.252Z,19.65
2023-05-19T06:24:38.672Z,19.35
2023-05-19T06:27:07.648Z,13.07
2023-05-19T06:29:36.313Z,15.18
2023-05-19T06:32:08.677Z,16.55
2023-05-19T06:34:38.265Z,24.20
2023-05-19T06:37:06.275Z,18.48
2023-05-19T06:39:35.183Z,19.65
2023-05-19T06:42:03.210Z,23.00
2023-05-19T06:44:50.090Z,14.63
2023-05-19T06:47:19.524Z,15.40
2023-05-19T06:49:50.642Z,14.00
2023-05-19T06:52:18.731Z,14.18
2023-05-19T06:54:46.899Z,16.77
2023-05-19T06:57:14.873Z,16.50
2023-05-19T06:59:43.526Z,16.15
2023-05-19T07:02:11.537Z,12.20
2023-05-19T07:04:41.060Z,17.75
2023-05-19T07:07:09.622Z,14.68
2023-05-19T07:09:38.173Z,16.98
2023-05-19T07:12:06.731Z,15.63
2023-05-19T07:14:36.421Z,18.58
2023-05-19T07:17:04.877Z,12.60
2023-05-19T07:19:34.147Z,12.13
2023-05-19T07:22:03.557Z,13.98
2023-05-19T07:24:31.636Z,14.88
2023-05-19T07:26:59.612Z,12.68
2023-05-19T07:29:27.563Z,17.95
2023-05-19T07:31:58.085Z,17.17
2023-05-19T07:34:26.428Z,11.02
2023-05-19T07:36:54.412Z,15.15
2023-05-19T07:39:26.322Z,27.50
2023-05-19T07:41:55.710Z,31.38
2023-05-19T07:44:23.747Z,29.27
2023-05-19T07:46:51.703Z,28.60
2023-05-19T07:49:19.673Z,26.55
2023-05-19T07:51:47.647Z,23.92
2023-05-19T07:54:15.624Z,29.98
2023-05-19T07:56:44.952Z,26.55
2023-05-19T07:59:13.308Z,31.23
2023-05-19T08:01:41.386Z,35.03
2023-05-19T08:04:11.166Z,29.40
2023-05-19T08:06:42.847Z,31.55
2023-05-19T08:09:10.963Z,32.38
2023-05-19T08:11:39.032Z,27.75
2023-05-19T08:14:08.480Z,27.33
2023-05-19T08:16:36.511Z,32.17
2023-05-19T08:19:05.462Z,25.80
2023-05-19T08:21:34.585Z,28.10
2023-05-19T08:24:02.551Z,31.73
2023-05-19T08:26:30.670Z,30.80
2023-05-19T08:28:58.652Z,26.50
2023-05-19T08:31:28.139Z,26.48
2023-05-19T08:33:56.177Z,26.38
2023-05-19T08:36:24.854Z,26.80
2023-05-19T08:38:52.881Z,27.98
2023-05-19T08:41:21.637Z,21.50
2023-05-19T08:43:50.000Z,21.38
2023-05-19T08:46:18.363Z,20.70
2023-05-19T08:48:47.691Z,24.63
2023-05-19T08:51:19.164Z,22.20
2023-05-19T08:53:49.564Z,20.52
2023-05-19T08:56:19.132Z,17.25
2023-05-19T08:58:47.714Z,19.52
2023-05-19T09:01:16.809Z,19.75
2023-05-19T09:03:45.198Z,20.83
2023-05-19T09:06:14.623Z,17.73
2023-05-19T09:08:42.838Z,18.80
2023-05-19T09:11:10.877Z,16.90
2023-05-19T09:13:38.840Z,16.05
2023-05-19T09:16:08.149Z,14.55
2023-05-19T09:18:38.723Z,16.92
2023-05-19T09:21:07.523Z,19.08
2023-05-19T09:23:36.880Z,20.27
2023-05-19T09:26:07.100Z,16.55
2023-05-19T09:28:35.534Z,15.25
2023-05-19T09:31:03.776Z,15.68
2023-05-19T09:33:32.080Z,16.70
2023-05-19T09:36:00.031Z,16.27
2023-05-19T09:38:28.349Z,13.75
2023-05-19T09:40:58.931Z,15.13
2023-05-19T09:43:28.928Z,14.43
2023-05-19T09:46:00.129Z,12.75
2023-05-19T09:48:28.612Z,14.13
2023-05-19T09:50:57.206Z,13.52
2023-05-19T09:53:26.101Z,15.48
2023-05-19T09:55:58.742Z,11.32
2023-05-19T09:58:27.074Z,12.63
2023-05-19T10:00:55.417Z,16.20
2023-05-19T10:03:23.883Z,11.27
2023-05-19T10:05:52.106Z,12.48
2023-05-19T10:08:20.037Z,11.38
2023-05-19T10:10:48.159Z,8.35
2023-05-19T10:13:17.512Z,9.38
2023-05-19T10:15:57.167Z,9.15
2023-05-19T10:18:27.018Z,9.40
2023-05-19T10:20:55.182Z,9.88
2023-05-19T10:23:23.579Z,9.95
2023-05-19T10:25:52.021Z,11.40
2023-05-19T10:28:23.582Z,8.70
2023-05-19T10:30:52.105Z,8.43
2023-05-19T10:33:21.024Z,8.90
2023-05-19T10:36:11.043Z,9.63
2023-05-19T10:38:43.122Z,11.55
2023-05-19T10:41:28.048Z,9.18
2023-05-19T10:44:04.731Z,8.70
2023-05-19T10:49:24.595Z,11.65
2023-05-19T10:51:53.335Z,9.48
2023-05-19T10:54:40.735Z,10.90
2023-05-19T10:57:13.055Z,9.05
2023-05-19T10:59:48.392Z,8.20
2023-05-19T11:02:43.107Z,8.43
2023-05-19T11:05:12.904Z,8.55
2023-05-19T11:07:43.324Z,9.80
2023-05-19T11:10:11.731Z,9.57
2023-05-19T11:12:43.905Z,10.07
2023-05-19T11:15:15.511Z,7.90
2023-05-19T11:17:55.850Z,7.68
2023-05-19T11:20:57.985Z,7.25
2023-05-19T11:23:26.895Z,6.70
2023-05-19T11:25:54.890Z,8.35
2023-05-19T11:28:26.031Z,8.82
2023-05-19T11:30:57.470Z,6.38
2023-05-19T11:33:27.090Z,8.98
2023-05-19T11:35:57.910Z,8.68
2023-05-19T11:38:26.014Z,8.05
2023-05-19T11:40:54.234Z,8.90
2023-05-19T11:43:24.145Z,8.60
2023-05-19T11:45:52.291Z,7.50
2023-05-19T11:48:23.666Z,6.63
2023-05-19T11:50:52.454Z,7.55
2023-05-19T11:53:21.054Z,7.97
2023-05-19T11:55:49.636Z,7.10
2023-05-19T11:58:18.177Z,9.43
2023-05-19T12:00:47.694Z,9.20
2023-05-19T12:03:17.357Z,8.40
2023-05-19T12:05:47.842Z,8.43
2023-05-19T12:08:17.206Z,9.82
2023-05-19T12:10:45.377Z,11.50
2023-05-19T12:13:13.408Z,10.80
2023-05-19T12:15:41.412Z,9.57
2023-05-19T12:18:09.632Z,10.50
2023-05-19T12:20:37.736Z,13.35
2023-05-19T12:23:07.497Z,12.43
2023-05-19T12:25:35.758Z,13.02
2023-05-19T12:28:06.639Z,14.20
2023-05-19T12:30:38.951Z,13.63
2023-05-19T12:36:04.058Z,12.32
2023-05-19T12:38:33.391Z,14.60
2023-05-19T12:41:01.351Z,13.85
2023-05-19T12:43:29.356Z,11.27
2023-05-19T12:45:57.346Z,14.82
2023-05-19T12:48:25.414Z,15.35
2023-05-19T12:50:54.456Z,15.45
2023-05-19T12:53:22.420Z,18.17
2023-05-19T12:55:53.799Z,14.07
2023-05-19T12:58:22.776Z,14.95
2023-05-19T13:00:51.815Z,15.48
2023-05-19T13:03:20.659Z,14.15
2023-05-19T13:05:50.348Z,16.05
2023-05-19T13:08:19.807Z,15.55
2023-05-19T13:10:49.063Z,16.85
2023-05-19T13:13:18.648Z,16.10
2023-05-19T13:15:48.977Z,15.60
2023-05-19T13:18:17.470Z,16.52
2023-05-19T13:20:46.416Z,15.07
2023-05-19T13:23:14.750Z,16.80
2023-05-19T13:25:42.719Z,16.02
2023-05-19T13:28:10.931Z,18.27
2023-05-19T13:30:41.595Z,15.80
2023-05-19T13:33:09.685Z,15.05
2023-05-19T13:35:38.250Z,15.32
2023-05-19T13:38:06.800Z,15.75
2023-05-19T13:40:35.569Z,16.05
2023-05-19T13:43:03.832Z,15.43
2023-05-19T13:45:31.931Z,14.10
2023-05-19T13:48:03.590Z,14.52
2023-05-19T13:50:31.821Z,14.80
2023-05-19T13:52:59.855Z,14.15
2023-05-19T13:55:28.210Z,15.13
2023-05-19T13:57:56.266Z,15.18
2023-05-19T14:00:24.272Z,18.08
2023-05-19T14:02:52.742Z,16.23
2023-05-19T14:05:22.292Z,16.75
2023-05-19T14:07:50.357Z,12.90
2023-05-19T14:10:18.428Z,14.15
2023-05-19T14:13:12.385Z,13.60
2023-05-19T14:15:37.768Z,12.25
2023-05-19T14:18:07.170Z,12.15
2023-05-19T14:20:36.812Z,16.92
2023-05-19T14:23:04.996Z,15.80
2023-05-19T14:25:33.014Z,16.45
2023-05-19T14:28:01.191Z,14.25
2023-05-19T14:30:29.277Z,15.38
2023-05-19T14:32:57.501Z,12.85
2023-05-19T14:35:25.947Z,13.20
2023-05-19T14:37:55.287Z,14.68
2023-05-19T14:40:23.287Z,14.25
2023-05-19T14:42:51.346Z,15.68
2023-05-19T14:45:19.481Z,13.38
2023-05-19T14:47:48.054Z,14.55
2023-05-19T14:50:16.250Z,14.88
2023-05-19T14:52:44.419Z,12.45
2023-05-19T14:55:13.744Z,12.15
2023-05-19T14:57:41.677Z,12.88
2023-05-19T15:00:10.874Z,17.38
2023-05-19T15:02:38.964Z,13.38
2023-05-19T15:05:07.256Z,11.95
2023-05-19T15:07:35.550Z,10.82
2023-05-19T15:10:04.216Z,14.95
2023-05-19T15:12:33.561Z,12.98
2023-05-19T15:15:01.499Z,14.02
2023-05-19T15:17:29.678Z,19.13
2023-05-19T15:19:57.646Z,13.90
2023-05-19T15:22:25.562Z,16.17
2023-05-19T15:24:53.561Z,14.52
2023-05-19T15:27:21.976Z,11.98
2023-05-19T15:29:51.381Z,9.88
2023-05-19T15:32:20.203Z,11.05
2023-05-19T15:34:48.249Z,15.13
2023-05-19T15:37:16.507Z,12.95
2023-05-19T15:39:44.510Z,13.85
2023-05-19T15:42:12.446Z,9.70
2023-05-19T15:44:40.451Z,12.90
2023-05-19T15:47:09.768Z,13.15
2023-05-19T15:49:37.786Z,14.25
2023-05-19T15:52:06.180Z,10.55
2023-05-19T15:54:34.160Z,10.40
2023-05-19T15:57:02.152Z,11.70
2023-05-19T15:59:30.136Z,14.10
2023-05-19T16:01:58.211Z,10.00
2023-05-19T16:04:27.558Z,9.93
2023-05-19T16:06:55.627Z,12.15
2023-05-19T16:09:23.736Z,12.63
2023-05-19T16:11:51.692Z,12.27
2023-05-19T16:14:19.634Z,11.85
2023-05-19T16:16:47.663Z,16.20
2023-05-19T16:19:15.850Z,10.05
2023-05-19T16:21:45.197Z,10.35
2023-05-19T16:24:13.131Z,9.38
2023-05-19T16:26:41.132Z,11.90
2023-05-19T16:29:09.098Z,9.55
2023-05-19T16:31:37.171Z,9.85
2023-05-19T16:34:05.197Z,11.68
2023-05-19T16:36:33.155Z,10.18
2023-05-19T16:39:02.548Z,10.02
2023-05-19T16:41:30.521Z,9.90
2023-05-19T16:43:58.471Z,10.48
2023-05-19T16:46:27.402Z,10.93
2023-05-19T16:48:57.051Z,10.68
2023-05-19T16:51:25.101Z,9.18
2023-05-19T16:53:53.197Z,12.30
2023-05-19T16:56:22.915Z,9.95
2023-05-19T16:58:51.046Z,11.05
2023-05-19T17:01:19.103Z,9.02
2023-05-19T17:03:48.215Z,14.65
2023-05-19T17:06:16.183Z,10.20
2023-05-19T17:08:44.208Z,9.63
2023-05-19T17:11:13.409Z,9.65
2023-05-19T17:13:43.854Z,14.13
2023-05-19T17:16:11.818Z,7.68
2023-05-19T17:18:39.907Z,10.93
2023-05-19T17:21:07.880Z,9.60
2023-05-19T17:23:35.867Z,8.77
2023-05-19T17:26:03.863Z,11.00
2023-05-19T17:28:31.809Z,10.27
2023-05-19T17:31:01.459Z,11.90
2023-05-19T17:33:29.489Z,9.20
2023-05-19T17:35:57.599Z,11.57
2023-05-19T17:38:25.596Z,8.05
2023-05-19T17:40:53.719Z,8.38
2023-05-19T17:43:21.718Z,7.47
2023-05-19T17:45:49.698Z,8.88
2023-05-19T17:48:19.035Z,11.35
2023-05-19T17:50:47.871Z,10.68
2023-05-19T17:53:16.215Z,8.35
2023-05-19T17:55:45.409Z,8.52
2023-05-19T17:58:13.867Z,10.27
2023-05-19T18:00:42.243Z,9.48
2023-05-19T18:03:11.318Z,7.90
2023-05-19T18:05:43.181Z,8.68
2023-05-19T18:08:11.356Z,8.32
2023-05-19T18:10:40.890Z,8.57
2023-05-19T18:13:09.826Z,8.15
2023-05-19T18:15:38.191Z,8.32
2023-05-19T18:18:07.690Z,11.18
2023-05-19T18:20:37.781Z,9.23
2023-05-19T18:23:07.313Z,12.18
2023-05-19T18:25:36.381Z,7.65
2023-05-19T18:28:04.460Z,11.32
2023-05-19T18:30:32.588Z,10.73
2023-05-19T18:33:03.388Z,9.57
2023-05-19T18:35:31.434Z,8.00
2023-05-19T18:37:59.780Z,7.43
2023-05-19T18:40:29.170Z,10.85
2023-05-19T18:42:57.171Z,7.82
2023-05-19T18:45:25.164Z,9.57
2023-05-19T18:47:53.197Z,7.60
2023-05-19T18:50:21.584Z,8.48
2023-05-19T18:52:49.554Z,7.63
2023-05-19T18:55:17.585Z,9.35
2023-05-19T18:57:47.049Z,7.45
2023-05-19T19:00:15.849Z,8.98
2023-05-19T19:02:44.007Z,7.07
2023-05-19T19:05:13.711Z,6.93
2023-05-19T19:07:42.112Z,9.00
2023-05-19T19:10:10.639Z,7.45
2023-05-19T19:12:38.918Z,6.88
2023-05-19T19:15:09.575Z,7.45
2023-05-19T19:17:37.726Z,7.35
2023-05-19T19:20:06.556Z,8.32
2023-05-19T19:22:34.718Z,7.20
2023-05-19T19:25:03.226Z,7.35
2023-05-19T19:27:35.409Z,9.25
2023-05-19T19:30:04.422Z,6.90
2023-05-19T19:32:33.767Z,7.05
2023-05-19T19:35:01.803Z,7.03
2023-05-19T19:37:29.783Z,8.60
2023-05-19T19:39:57.726Z,7.30
2023-05-19T19:42:25.721Z,7.00
2023-05-19T19:44:55.973Z,5.25
2023-05-19T19:47:24.014Z,9.15
2023-05-19T19:49:53.420Z,5.40
2023-05-19T19:52:21.420Z,6.97
2023-05-19T19:54:49.460Z,8.30
2023-05-19T19:57:17.642Z,7.53
2023-05-19T19:59:45.760Z,8.65
2023-05-19T20:02:13.822Z,8.02
2023-05-19T20:04:41.928Z,9.50
2023-05-19T20:07:11.345Z,6.50
2023-05-19T20:09:39.419Z,7.35
2023-05-19T20:12:08.156Z,7.75
2023-05-19T20:14:36.637Z,7.07
2023-05-19T20:17:04.681Z,7.45
2023-05-19T20:19:32.722Z,8.80
2023-05-19T20:22:00.922Z,7.63
2023-05-19T20:24:30.210Z,9.05
2023-05-19T20:26:58.153Z,7.80
2023-05-19T20:29:26.110Z,8.68
2023-05-19T20:31:55.486Z,13.10
2023-05-19T20:34:24.639Z,13.00
2023-05-19T20:36:52.615Z,14.77
2023-05-19T20:39:20.619Z,7.90
2023-05-19T20:41:49.929Z,10.73
2023-05-19T20:44:17.976Z,7.18
2023-05-19T20:46:45.931Z,7.85
2023-05-19T20:49:14.191Z,13.27
2023-05-19T20:51:42.208Z,8.43
2023-05-19T20:54:10.172Z,7.88
2023-05-19T20:56:38.118Z,9.88
2023-05-19T20:59:07.412Z,6.93
2023-05-19T21:01:35.598Z,10.57
2023-05-19T21:04:06.812Z,8.25
2023-05-19T21:06:34.823Z,9.88
2023-05-19T21:09:05.319Z,9.90
2023-05-19T21:11:33.365Z,6.80
2023-05-19T21:14:03.925Z,7.35
2023-05-19T21:16:34.018Z,13.40
2023-05-19T21:19:02.318Z,9.52
2023-05-19T21:21:31.669Z,9.95
2023-05-19T21:23:59.801Z,7.95
2023-05-19T21:26:27.792Z,8.80
2023-05-19T21:28:55.792Z,7.93
2023-05-19T21:31:23.783Z,9.52
2023-05-19T21:33:53.132Z,8.43
2023-05-19T21:36:21.164Z,7.10
2023-05-19T21:38:49.074Z,9.05
2023-05-19T21:41:16.986Z,6.90
2023-05-19T21:43:45.329Z,5.65
2023-05-19T21:46:14.023Z,13.13
2023-05-19T21:48:42.128Z,5.63
2023-05-19T21:51:11.452Z,6.82
2023-05-19T21:53:39.352Z,9.40
2023-05-19T21:56:07.506Z,7.65
2023-05-19T21:58:35.518Z,4.65
2023-05-19T22:01:03.513Z,7.32
2023-05-19T22:03:31.616Z,8.23
2023-05-19T22:05:59.602Z,10.13
2023-05-19T22:08:28.941Z,17.05
2023-05-19T22:10:56.955Z,16.00
2023-05-19T22:13:25.007Z,21.40
2023-05-19T22:15:53.081Z,16.95
2023-05-19T22:18:21.371Z,10.07
2023-05-19T22:20:49.359Z,9.02
2023-05-19T22:23:17.318Z,9.38
2023-05-19T22:25:46.985Z,7.63
2023-05-19T22:28:15.007Z,12.15
2023-05-19T22:30:44.003Z,8.50
2023-05-19T22:33:12.218Z,8.68
2023-05-19T22:35:40.190Z,11.48
2023-05-19T22:38:10.276Z,7.03
2023-05-19T22:40:38.943Z,10.10
2023-05-19T22:43:08.310Z,10.25
2023-05-19T22:45:36.681Z,9.52
2023-05-19T22:48:05.311Z,9.25
2023-05-19T22:50:33.421Z,10.75
2023-05-19T22:53:01.446Z,13.52
2023-05-19T22:55:29.407Z,10.75
2023-05-19T22:57:57.350Z,14.45
2023-05-19T23:00:26.746Z,14.95
2023-05-19T23:02:54.877Z,11.13
2023-05-19T23:05:23.142Z,9.63
2023-05-19T23:07:51.245Z,11.95
2023-05-19T23:10:19.483Z,12.10
2023-05-19T23:12:47.454Z,10.85
2023-05-19T23:15:15.690Z,8.60
2023-05-19T23:17:44.996Z,12.63
2023-05-19T23:20:14.346Z,10.88
2023-05-19T23:22:42.294Z,11.10
2023-05-19T23:25:10.593Z,12.07
2023-05-19T23:27:38.530Z,9.25
2023-05-19T23:30:07.743Z,16.70
2023-05-19T23:32:36.037Z,11.27
2023-05-19T23:35:12.730Z,9.05
2023-05-19T23:37:40.717Z,8.68
2023-05-19T23:40:09.507Z,8.85
2023-05-19T23:42:37.692Z,7.35
2023-05-19T23:45:06.254Z,7.15
2023-05-19T23:47:34.259Z,12.02
2023-05-19T23:50:03.787Z,10.43
2023-05-19T23:52:33.576Z,8.82
2023-05-19T23:55:03.257Z,10.30
2023-05-19T23:57:31.208Z,9.23
2023-05-19T23:59:59.693Z,8.32
